createdAt,value
2018-08-22T00:00:37.451Z,100931.84
2018-08-22T00:01:43.852Z,100932.29
2018-08-22T00:02:51.383Z,100929.85
2018-08-22T00:03:58.559Z,100925.53
2018-08-22T00:05:05.119Z,100927.41
2018-08-22T00:06:11.371Z,100932.64
2018-08-22T00:07:17.820Z,100926.70
2018-08-22T00:08:23.856Z,100926.27
2018-08-22T00:09:30.549Z,100925.15
2018-08-22T00:10:38.220Z,100925.98
2018-08-22T00:11:44.579Z,100923.25
2018-08-22T00:12:51.563Z,100924.75
2018-08-22T00:13:57.990Z,100921.67
2018-08-22T00:15:04.009Z,100923.22
2018-08-22T00:16:10.528Z,100918.26
2018-08-22T00:17:16.726Z,100924.58
2018-08-22T00:18:23.080Z,100917.21
2018-08-22T00:19:29.390Z,100921.17
2018-08-22T00:20:35.756Z,100919.59
2018-08-22T00:21:41.980Z,100915.23
2018-08-22T00:22:48.830Z,100917.75
2018-08-22T00:23:55.124Z,100907.74
2018-08-22T00:25:01.453Z,100912.63
2018-08-22T00:26:07.757Z,100912.20
2018-08-22T00:27:14.060Z,100911.50
2018-08-22T00:28:20.399Z,100913.89
2018-08-22T00:29:26.698Z,100910.55
2018-08-22T00:30:33.147Z,100907.58
2018-08-22T00:31:39.413Z,100908.51
2018-08-22T00:32:45.778Z,100912.83
2018-08-22T00:33:52.071Z,100910.66
2018-08-22T00:34:58.242Z,100908.73
2018-08-22T00:36:11.085Z,100910.30
2018-08-22T00:37:18.753Z,100909.99
2018-08-22T00:38:25.138Z,100914.32
2018-08-22T00:39:31.395Z,100907.31
2018-08-22T00:40:37.677Z,100920.86
2018-08-22T00:41:43.983Z,100912.94
2018-08-22T00:42:52.177Z,100913.13
2018-08-22T00:43:59.046Z,100908.37
2018-08-22T00:45:05.283Z,100911.81
2018-08-22T00:46:11.751Z,100909.99
2018-08-22T00:47:23.830Z,100917.86
2018-08-22T00:48:30.223Z,100915.05
2018-08-22T00:49:36.492Z,100914.06
2018-08-22T00:50:42.788Z,100908.34
2018-08-22T00:51:49.090Z,100910.56
2018-08-22T00:52:55.434Z,100908.38
2018-08-22T00:54:01.874Z,100910.59
2018-08-22T00:55:08.140Z,100901.48
2018-08-22T00:56:14.427Z,100902.14
2018-08-22T00:57:20.739Z,100905.84
2018-08-22T00:58:27.093Z,100902.90
2018-08-22T00:59:33.351Z,100905.48
2018-08-22T01:00:39.691Z,100900.45
2018-08-22T01:01:45.171Z,100902.41
2018-08-22T01:02:51.485Z,100901.37
2018-08-22T01:03:58.089Z,100901.84
2018-08-22T01:05:04.147Z,100897.41
2018-08-22T01:06:10.436Z,100901.08
2018-08-22T01:07:16.775Z,100903.06
2018-08-22T01:08:23.063Z,100897.38
2018-08-22T01:09:29.363Z,100903.89
2018-08-22T01:10:35.706Z,100904.09
2018-08-22T01:11:42.169Z,100898.44
2018-08-22T01:12:48.439Z,100898.11
2018-08-22T01:13:54.847Z,100899.70
2018-08-22T01:15:01.140Z,100897.64
2018-08-22T01:16:07.445Z,100894.05
2018-08-22T01:17:13.756Z,100896.78
2018-08-22T01:18:20.092Z,100894.87
2018-08-22T01:19:26.423Z,100903.26
2018-08-22T01:20:32.703Z,100896.39
2018-08-22T01:21:39.652Z,100893.35
2018-08-22T01:22:46.735Z,100893.05
2018-08-22T01:23:52.613Z,100895.63
2018-08-22T01:24:58.679Z,100897.41
2018-08-22T01:26:04.985Z,100894.73
2018-08-22T01:27:11.036Z,100901.34
2018-08-22T01:28:17.296Z,100890.87
2018-08-22T01:29:23.595Z,100898.83
2018-08-22T01:30:29.547Z,100897.21
2018-08-22T01:31:35.941Z,100890.73
2018-08-22T01:32:42.227Z,100890.05
2018-08-22T01:33:53.660Z,100891.70
2018-08-22T01:35:03.734Z,100895.52
2018-08-22T01:36:09.959Z,100893.38
2018-08-22T01:37:16.287Z,100892.66
2018-08-22T01:38:22.616Z,100889.95
2018-08-22T01:39:29.000Z,100892.13
2018-08-22T01:40:35.341Z,100890.08
2018-08-22T01:41:41.632Z,100888.69
2018-08-22T01:42:47.935Z,100887.34
2018-08-22T01:43:54.397Z,100890.97
2018-08-22T01:45:00.667Z,100886.67
2018-08-22T01:46:06.965Z,100888.65
2018-08-22T01:47:13.414Z,100887.33
2018-08-22T01:48:19.369Z,100890.20
2018-08-22T01:49:25.544Z,100885.45
2018-08-22T01:50:31.588Z,100892.05
2018-08-22T01:51:37.935Z,100891.72
2018-08-22T01:52:44.235Z,100891.72
2018-08-22T01:53:50.575Z,100883.92
2018-08-22T01:54:56.884Z,100889.67
2018-08-22T01:56:03.172Z,100882.74
2018-08-22T01:57:09.479Z,100883.05
2018-08-22T01:58:15.784Z,100876.90
2018-08-22T01:59:22.033Z,100885.16
2018-08-22T02:00:28.318Z,100876.77
2018-08-22T02:01:34.655Z,100875.22
2018-08-22T02:02:40.951Z,100879.44
2018-08-22T02:03:47.302Z,100886.55
2018-08-22T02:04:53.566Z,100876.31
2018-08-22T02:05:59.880Z,100874.33
2018-08-22T02:07:06.194Z,100875.70
2018-08-22T02:08:12.493Z,100874.58
2018-08-22T02:09:18.909Z,100874.15
2018-08-22T02:10:25.260Z,100874.12
2018-08-22T02:11:31.584Z,100871.05
2018-08-22T02:12:43.574Z,100867.61
2018-08-22T02:13:50.034Z,100867.77
2018-08-22T02:14:56.328Z,100861.20
2018-08-22T02:16:02.318Z,100863.81
2018-08-22T02:17:08.640Z,100866.42
2018-08-22T02:18:14.942Z,100865.58
2018-08-22T02:19:21.175Z,100868.50
2018-08-22T02:20:27.527Z,100867.16
2018-08-22T02:21:39.560Z,100860.56
2018-08-22T02:22:49.704Z,100857.15
2018-08-22T02:23:56.043Z,100852.05
2018-08-22T02:25:02.380Z,100858.38
2018-08-22T02:26:08.960Z,100860.55
2018-08-22T02:27:15.267Z,100857.18
2018-08-22T02:28:21.573Z,100857.96
2018-08-22T02:29:27.596Z,100859.86
2018-08-22T02:30:33.901Z,100861.67
2018-08-22T02:31:40.236Z,100860.55
2018-08-22T02:32:46.504Z,100857.75
2018-08-22T02:33:52.739Z,100860.91
2018-08-22T02:34:59.447Z,100854.02
2018-08-22T02:36:06.775Z,100855.52
2018-08-22T02:37:13.062Z,100861.17
2018-08-22T02:38:19.182Z,100857.70
2018-08-22T02:39:25.437Z,100857.95
2018-08-22T02:40:31.747Z,100854.98
2018-08-22T02:41:37.810Z,100853.30
2018-08-22T02:42:44.027Z,100854.77
2018-08-22T02:43:50.349Z,100853.63
2018-08-22T02:44:56.710Z,100854.13
2018-08-22T02:46:02.987Z,100854.37
2018-08-22T02:47:09.592Z,100852.52
2018-08-22T02:48:15.895Z,100854.52
2018-08-22T02:49:22.251Z,100857.16
2018-08-22T02:50:28.535Z,100853.23
2018-08-22T02:51:34.831Z,100855.50
2018-08-22T02:52:41.318Z,100850.59
2018-08-22T02:53:47.674Z,100850.44
2018-08-22T02:54:53.801Z,100852.77
2018-08-22T02:56:00.089Z,100855.28
2018-08-22T02:57:06.400Z,100860.66
2018-08-22T02:58:13.752Z,100858.38
2018-08-22T02:59:20.029Z,100856.81
2018-08-22T03:00:26.371Z,100855.93
2018-08-22T03:01:32.782Z,100862.65
2018-08-22T03:02:39.136Z,100857.25
2018-08-22T03:03:45.411Z,100860.19
2018-08-22T03:04:51.744Z,100858.50
2018-08-22T03:05:57.803Z,100855.62
2018-08-22T03:07:04.939Z,100858.78
2018-08-22T03:08:22.806Z,100854.45
2018-08-22T03:09:34.791Z,100858.75
2018-08-22T03:10:42.243Z,100855.98
2018-08-22T03:11:48.517Z,100858.26
2018-08-22T03:12:54.817Z,100859.39
2018-08-22T03:14:01.114Z,100853.54
2018-08-22T03:15:07.483Z,100852.68
2018-08-22T03:16:13.868Z,100859.52
2018-08-22T03:17:20.227Z,100855.34
2018-08-22T03:18:26.471Z,100858.22
2018-08-22T03:19:32.828Z,100857.33
2018-08-22T03:20:39.754Z,100859.45
2018-08-22T03:21:46.510Z,100852.91
2018-08-22T03:22:52.872Z,100855.61
2018-08-22T03:23:59.164Z,100858.40
2018-08-22T03:25:05.518Z,100853.95
2018-08-22T03:26:11.987Z,100844.61
2018-08-22T03:27:19.003Z,100851.38
2018-08-22T03:28:25.568Z,100847.09
2018-08-22T03:29:31.891Z,100851.02
2018-08-22T03:30:38.184Z,100848.00
2018-08-22T03:31:44.527Z,100847.67
2018-08-22T03:32:50.812Z,100851.25
2018-08-22T03:33:57.279Z,100847.09
2018-08-22T03:35:03.248Z,100849.97
2018-08-22T03:36:09.631Z,100846.17
2018-08-22T03:37:16.107Z,100844.86
2018-08-22T03:38:22.465Z,100845.59
2018-08-22T03:39:28.668Z,100842.45
2018-08-22T03:40:35.031Z,100843.19
2018-08-22T03:41:41.425Z,100846.32
2018-08-22T03:42:47.699Z,100839.97
2018-08-22T03:43:54.028Z,100850.81
2018-08-22T03:45:00.151Z,100846.20
2018-08-22T03:46:06.645Z,100846.69
2018-08-22T03:47:13.057Z,100849.53
2018-08-22T03:48:19.425Z,100847.37
2018-08-22T03:49:25.685Z,100839.80
2018-08-22T03:50:32.930Z,100846.65
2018-08-22T03:51:40.156Z,100846.41
2018-08-22T03:52:49.358Z,100845.64
2018-08-22T03:53:55.646Z,100845.55
2018-08-22T03:55:01.987Z,100848.97
2018-08-22T03:56:12.864Z,100845.53
2018-08-22T03:57:19.252Z,100849.31
2018-08-22T03:58:26.530Z,100848.11
2018-08-22T03:59:33.427Z,100847.22
2018-08-22T04:00:42.612Z,100842.78
2018-08-22T04:01:48.752Z,100850.34
2018-08-22T04:02:55.685Z,100839.66
2018-08-22T04:04:01.939Z,100849.31
2018-08-22T04:05:08.308Z,100845.42
2018-08-22T04:06:14.587Z,100848.45
2018-08-22T04:07:20.899Z,100847.14
2018-08-22T04:08:27.210Z,100848.55
2018-08-22T04:09:33.535Z,100849.31
2018-08-22T04:10:39.868Z,100842.27
2018-08-22T04:11:47.121Z,100844.45
2018-08-22T04:13:00.825Z,100843.50
2018-08-22T04:14:19.592Z,100843.84
2018-08-22T04:15:38.009Z,100843.73
2018-08-22T04:16:52.081Z,100846.06
2018-08-22T04:18:09.128Z,100841.45
2018-08-22T04:19:22.146Z,100844.30
2018-08-22T04:20:41.367Z,100851.89
2018-08-22T04:22:02.360Z,100856.13
2018-08-22T04:23:21.644Z,100848.38
2018-08-22T04:24:39.485Z,100851.09
2018-08-22T04:26:01.211Z,100850.63
2018-08-22T04:27:19.284Z,100852.70
2018-08-22T04:28:33.335Z,100846.25
2018-08-22T04:29:54.099Z,100854.30
2018-08-22T04:31:08.028Z,100849.91
2018-08-22T04:32:33.083Z,100851.01
2018-08-22T04:33:51.436Z,100853.22
2018-08-22T04:35:10.304Z,100849.43
2018-08-22T04:36:44.827Z,100852.09
2018-08-22T04:38:11.222Z,100845.54
2018-08-22T04:39:30.215Z,100847.74
2018-08-22T04:40:41.803Z,100843.56
2018-08-22T04:41:59.318Z,100843.62
2018-08-22T04:43:17.702Z,100846.99
2018-08-22T04:44:28.914Z,100843.13
2018-08-22T04:45:41.523Z,100844.10
2018-08-22T04:46:53.461Z,100843.05
2018-08-22T04:48:04.875Z,100849.73
2018-08-22T04:49:14.491Z,100844.17
2018-08-22T04:50:25.418Z,100848.98
2018-08-22T04:51:36.721Z,100841.89
2018-08-22T04:52:48.423Z,100848.22
2018-08-22T04:53:59.387Z,100847.00
2018-08-22T04:55:08.122Z,100844.34
2018-08-22T04:56:14.395Z,100841.83
2018-08-22T04:57:20.711Z,100853.91
2018-08-22T04:58:27.004Z,100846.45
2018-08-22T04:59:33.370Z,100849.89
2018-08-22T05:00:39.681Z,100844.95
2018-08-22T05:01:46.671Z,100843.52
2018-08-22T05:02:53.110Z,100842.71
2018-08-22T05:03:59.379Z,100842.95
2018-08-22T05:05:05.707Z,100842.19
2018-08-22T05:06:12.659Z,100847.62
2018-08-22T05:07:19.640Z,100847.25
2018-08-22T05:08:25.852Z,100843.99
2018-08-22T05:09:32.204Z,100845.16
2018-08-22T05:10:38.523Z,100840.91
2018-08-22T05:11:44.856Z,100840.76
2018-08-22T05:12:51.114Z,100843.30
2018-08-22T05:13:57.407Z,100843.67
2018-08-22T05:15:03.627Z,100837.87
2018-08-22T05:16:11.005Z,100845.47
2018-08-22T05:17:18.694Z,100838.02
2018-08-22T05:18:25.032Z,100845.17
2018-08-22T05:19:31.340Z,100842.92
2018-08-22T05:20:38.526Z,100842.34
2018-08-22T05:21:45.047Z,100840.55
2018-08-22T05:22:53.340Z,100841.22
2018-08-22T05:24:00.146Z,100846.96
2018-08-22T05:25:10.426Z,100839.63
2018-08-22T05:26:17.152Z,100841.78
2018-08-22T05:27:24.889Z,100837.62
2018-08-22T05:28:40.080Z,100831.97
2018-08-22T05:29:57.272Z,100839.03
2018-08-22T05:31:09.000Z,100841.38
2018-08-22T05:32:15.293Z,100836.02
2018-08-22T05:33:21.607Z,100840.00
2018-08-22T05:34:32.920Z,100838.75
2018-08-22T05:35:39.710Z,100839.63
2018-08-22T05:36:46.003Z,100838.84
2018-08-22T05:37:53.904Z,100836.42
2018-08-22T05:39:01.326Z,100833.90
2018-08-22T05:40:07.810Z,100838.09
2018-08-22T05:41:14.568Z,100835.78
2018-08-22T05:42:21.104Z,100834.34
2018-08-22T05:43:27.509Z,100836.44
2018-08-22T05:44:34.261Z,100832.31
2018-08-22T05:45:40.763Z,100832.84
2018-08-22T05:46:47.059Z,100828.12
2018-08-22T05:47:53.625Z,100832.95
2018-08-22T05:49:00.165Z,100832.20
2018-08-22T05:50:06.237Z,100840.00
2018-08-22T05:51:12.496Z,100837.75
2018-08-22T05:52:18.853Z,100835.35
2018-08-22T05:53:25.147Z,100833.31
2018-08-22T05:54:31.419Z,100838.00
2018-08-22T05:55:37.764Z,100832.30
2018-08-22T05:56:44.086Z,100832.63
2018-08-22T05:57:50.425Z,100831.61
2018-08-22T05:58:56.702Z,100831.05
2018-08-22T06:00:03.716Z,100826.66
2018-08-22T06:01:10.584Z,100832.73
2018-08-22T06:02:17.287Z,100831.44
2018-08-22T06:03:23.685Z,100828.76
2018-08-22T06:04:30.205Z,100830.71
2018-08-22T06:05:36.611Z,100838.38
2018-08-22T06:06:43.757Z,100833.12
2018-08-22T06:07:50.185Z,100835.77
2018-08-22T06:08:56.456Z,100836.80
2018-08-22T06:10:02.797Z,100836.14
2018-08-22T06:11:09.055Z,100839.02
2018-08-22T06:12:15.412Z,100831.89
2018-08-22T06:13:21.676Z,100833.84
2018-08-22T06:14:27.913Z,100835.01
2018-08-22T06:15:34.221Z,100836.33
2018-08-22T06:16:40.839Z,100836.38
2018-08-22T06:17:46.751Z,100837.39
2018-08-22T06:18:52.736Z,100828.07
2018-08-22T06:19:59.080Z,100829.39
2018-08-22T06:21:05.372Z,100827.95
2018-08-22T06:22:11.720Z,100826.23
2018-08-22T06:23:17.791Z,100823.88
2018-08-22T06:24:24.102Z,100832.89
2018-08-22T06:25:30.460Z,100836.94
2018-08-22T06:26:42.456Z,100832.77
2018-08-22T06:27:48.796Z,100836.65
2018-08-22T06:28:55.584Z,100829.95
2018-08-22T06:30:01.838Z,100829.09
2018-08-22T06:31:08.747Z,100829.84
2018-08-22T06:32:15.074Z,100824.84
2018-08-22T06:33:21.422Z,100830.44
2018-08-22T06:34:27.692Z,100827.22
2018-08-22T06:35:33.972Z,100825.09
2018-08-22T06:36:40.284Z,100831.02
2018-08-22T06:37:46.659Z,100831.30
2018-08-22T06:38:53.116Z,100834.23
2018-08-22T06:39:59.432Z,100828.66
2018-08-22T06:41:05.843Z,100834.17
2018-08-22T06:43:17.431Z,100832.80
2018-08-22T06:44:23.541Z,100829.29
2018-08-22T06:45:29.728Z,100833.75
2018-08-22T06:46:36.073Z,100833.78
2018-08-22T06:47:42.416Z,100835.98
2018-08-22T06:48:48.812Z,100836.41
2018-08-22T06:49:55.164Z,100836.92
2018-08-22T06:51:01.432Z,100833.73
2018-08-22T06:52:07.771Z,100831.23
2018-08-22T06:53:14.085Z,100824.86
2018-08-22T06:54:20.518Z,100830.49
2018-08-22T06:55:26.829Z,100833.27
2018-08-22T06:56:33.110Z,100830.28
2018-08-22T06:57:39.446Z,100831.69
2018-08-22T06:58:45.715Z,100829.63
2018-08-22T06:59:52.049Z,100823.91
2018-08-22T07:00:58.372Z,100828.53
2018-08-22T07:02:04.655Z,100827.58
2018-08-22T07:03:11.238Z,100827.13
2018-08-22T07:04:17.485Z,100821.71
2018-08-22T07:05:23.775Z,100819.01
2018-08-22T07:06:30.223Z,100815.17
2018-08-22T07:07:36.529Z,100813.88
2018-08-22T07:08:42.821Z,100817.08
2018-08-22T07:09:50.056Z,100818.76
2018-08-22T07:10:56.375Z,100818.86
2018-08-22T07:12:02.708Z,100816.96
2018-08-22T07:13:09.030Z,100811.27
2018-08-22T07:14:15.336Z,100812.50
2018-08-22T07:15:21.651Z,100810.38
2018-08-22T07:16:28.684Z,100809.53
2018-08-22T07:17:35.095Z,100815.11
2018-08-22T07:18:46.885Z,100813.77
2018-08-22T07:19:53.223Z,100812.87
2018-08-22T07:21:00.473Z,100818.78
2018-08-22T07:22:07.055Z,100808.02
2018-08-22T07:23:13.293Z,100814.88
2018-08-22T07:24:19.592Z,100810.36
2018-08-22T07:25:25.923Z,100801.23
2018-08-22T07:26:32.241Z,100809.42
2018-08-22T07:27:38.554Z,100810.81
2018-08-22T07:28:44.525Z,100810.41
2018-08-22T07:29:50.876Z,100807.36
2018-08-22T07:31:05.389Z,100812.63
2018-08-22T07:32:11.599Z,100806.93
2018-08-22T07:33:17.877Z,100809.38
2018-08-22T07:34:23.961Z,100812.33
2018-08-22T07:35:30.251Z,100805.30
2018-08-22T07:36:36.480Z,100807.62
2018-08-22T07:37:42.820Z,100806.95
2018-08-22T07:38:56.616Z,100811.81
2018-08-22T07:40:03.010Z,100809.23
2018-08-22T07:41:09.316Z,100800.39
2018-08-22T07:42:15.677Z,100807.00
2018-08-22T07:43:24.901Z,100799.77
2018-08-22T07:44:31.240Z,100799.14
2018-08-22T07:45:37.838Z,100808.47
2018-08-22T07:46:44.202Z,100802.67
2018-08-22T07:47:50.637Z,100804.70
2018-08-22T07:48:57.433Z,100800.56
2018-08-22T07:50:03.484Z,100800.26
2018-08-22T07:51:09.918Z,100800.81
2018-08-22T07:52:16.230Z,100803.59
2018-08-22T07:53:23.475Z,100803.30
2018-08-22T07:54:29.751Z,100805.42
2018-08-22T07:55:39.069Z,100803.60
2018-08-22T07:56:45.360Z,100800.90
2018-08-22T07:57:51.698Z,100801.48
2018-08-22T07:58:57.319Z,100803.80
2018-08-22T08:00:03.655Z,100800.45
2018-08-22T08:01:10.661Z,100796.20
2018-08-22T08:02:16.924Z,100796.55
2018-08-22T08:03:23.799Z,100796.52
2018-08-22T08:04:30.048Z,100801.28
2018-08-22T08:05:36.383Z,100805.86
2018-08-22T08:06:43.008Z,100795.31
2018-08-22T08:07:49.497Z,100796.63
2018-08-22T08:08:55.840Z,100799.44
2018-08-22T08:10:02.136Z,100796.96
2018-08-22T08:11:17.706Z,100795.14
2018-08-22T08:12:23.690Z,100790.67
2018-08-22T08:13:30.032Z,100790.20
2018-08-22T08:14:36.284Z,100791.06
2018-08-22T08:15:42.690Z,100790.50
2018-08-22T08:16:49.053Z,100791.12
2018-08-22T08:17:55.305Z,100789.03
2018-08-22T08:19:01.655Z,100794.27
2018-08-22T08:20:07.654Z,100792.50
2018-08-22T08:21:13.964Z,100787.37
2018-08-22T08:22:20.267Z,100784.58
2018-08-22T08:23:31.592Z,100789.13
2018-08-22T08:24:37.917Z,100783.87
2018-08-22T08:25:44.212Z,100781.25
2018-08-22T08:26:50.556Z,100784.22
2018-08-22T08:27:57.181Z,100780.86
2018-08-22T08:29:03.846Z,100785.41
2018-08-22T08:30:10.099Z,100781.09
2018-08-22T08:31:16.387Z,100778.98
2018-08-22T08:32:22.692Z,100777.19
2018-08-22T08:33:29.142Z,100776.94
2018-08-22T08:34:35.530Z,100776.58
2018-08-22T08:35:41.889Z,100779.08
2018-08-22T08:36:51.525Z,100776.70
2018-08-22T08:37:57.832Z,100776.28
2018-08-22T08:39:03.611Z,100770.69
2018-08-22T08:40:09.842Z,100769.55
2018-08-22T08:41:16.172Z,100764.31
2018-08-22T08:42:22.505Z,100771.57
2018-08-22T08:43:29.175Z,100769.98
2018-08-22T08:44:35.613Z,100764.29
2018-08-22T08:45:41.919Z,100761.69
2018-08-22T08:46:48.248Z,100759.06
2018-08-22T08:47:54.351Z,100764.83
2018-08-22T08:49:14.215Z,100754.45
2018-08-22T08:50:20.472Z,100753.97
2018-08-22T08:51:26.791Z,100756.52
2018-08-22T08:52:33.362Z,100751.02
2018-08-22T08:53:39.948Z,100750.51
2018-08-22T08:54:46.331Z,100748.41
2018-08-22T08:55:58.256Z,100748.58
2018-08-22T08:57:05.352Z,100747.66
2018-08-22T08:58:11.352Z,100745.87
2018-08-22T08:59:17.772Z,100748.34
2018-08-22T09:00:26.239Z,100746.23
2018-08-22T09:01:33.232Z,100739.09
2018-08-22T09:02:40.124Z,100744.69
2018-08-22T09:03:46.432Z,100744.30
2018-08-22T09:04:52.855Z,100737.76
2018-08-22T09:05:59.055Z,100736.31
2018-08-22T09:07:05.399Z,100731.11
2018-08-22T09:08:11.733Z,100737.30
2018-08-22T09:09:18.356Z,100737.22
2018-08-22T09:10:24.678Z,100726.67
2018-08-22T09:11:30.967Z,100733.40
2018-08-22T09:12:36.291Z,100733.64
2018-08-22T09:13:42.333Z,100736.97
2018-08-22T09:14:48.792Z,100738.74
2018-08-22T09:15:55.056Z,100742.17
2018-08-22T09:17:01.502Z,100732.27
2018-08-22T09:18:08.525Z,100730.93
2018-08-22T09:19:14.951Z,100732.11
2018-08-22T09:20:21.228Z,100726.76
2018-08-22T09:21:27.600Z,100724.30
2018-08-22T09:22:34.059Z,100723.09
2018-08-22T09:23:40.403Z,100726.91
2018-08-22T09:24:46.720Z,100724.03
2018-08-22T09:25:53.005Z,100719.10
2018-08-22T09:26:59.545Z,100722.22
2018-08-22T09:28:05.866Z,100712.41
2018-08-22T09:29:12.490Z,100715.47
2018-08-22T09:30:18.788Z,100714.07
2018-08-22T09:31:25.104Z,100716.73
2018-08-22T09:32:31.383Z,100716.59
2018-08-22T09:33:37.743Z,100714.94
2018-08-22T09:34:44.377Z,100711.43
2018-08-22T09:35:50.984Z,100714.55
2018-08-22T09:36:57.244Z,100711.92
2018-08-22T09:38:03.544Z,100716.68
2018-08-22T09:39:09.760Z,100706.43
2018-08-22T09:40:16.007Z,100708.28
2018-08-22T09:41:22.417Z,100710.69
2018-08-22T09:42:28.692Z,100705.99
2018-08-22T09:43:35.048Z,100710.48
2018-08-22T09:44:41.367Z,100700.41
2018-08-22T09:45:52.867Z,100706.45
2018-08-22T09:46:59.160Z,100705.03
2018-08-22T09:48:06.477Z,100704.06
2018-08-22T09:49:12.458Z,100701.98
2018-08-22T09:50:19.051Z,100694.53
2018-08-22T09:51:25.380Z,100690.70
2018-08-22T09:52:32.216Z,100695.52
2018-08-22T09:53:38.479Z,100695.51
2018-08-22T09:54:43.835Z,100685.31
2018-08-22T09:55:50.084Z,100688.10
2018-08-22T09:56:56.448Z,100690.94
2018-08-22T09:58:02.885Z,100685.63
2018-08-22T09:59:09.092Z,100682.41
2018-08-22T10:00:15.444Z,100684.16
2018-08-22T10:01:21.395Z,100683.53
2018-08-22T10:02:27.416Z,100682.97
2018-08-22T10:03:32.957Z,100679.44
2018-08-22T10:04:39.075Z,100682.09
2018-08-22T10:05:45.540Z,100676.93
2018-08-22T10:06:51.838Z,100671.84
2018-08-22T10:07:57.847Z,100673.17
2018-08-22T10:09:03.595Z,100676.24
2018-08-22T10:10:09.949Z,100671.52
2018-08-22T10:11:16.203Z,100670.92
2018-08-22T10:12:22.493Z,100672.62
2018-08-22T10:13:28.750Z,100665.59
2018-08-22T10:14:35.051Z,100663.30
2018-08-22T10:15:41.346Z,100665.86
2018-08-22T10:16:47.645Z,100663.30
2018-08-22T10:17:53.961Z,100663.70
2018-08-22T10:19:00.326Z,100664.20
2018-08-22T10:20:06.304Z,100660.00
2018-08-22T10:21:12.584Z,100657.56
2018-08-22T10:22:19.039Z,100655.08
2018-08-22T10:23:25.051Z,100653.83
2018-08-22T10:24:31.072Z,100648.33
2018-08-22T10:25:37.328Z,100652.73
2018-08-22T10:26:43.104Z,100653.66
2018-08-22T10:27:49.258Z,100651.38
2018-08-22T10:28:57.546Z,100648.52
2018-08-22T10:30:03.858Z,100647.75
2018-08-22T10:31:09.819Z,100646.55
2018-08-22T10:32:15.829Z,100643.85
2018-08-22T10:33:21.826Z,100643.98
2018-08-22T10:34:27.874Z,100640.91
2018-08-22T10:35:34.160Z,100644.14
2018-08-22T10:36:40.663Z,100643.94
2018-08-22T10:37:47.146Z,100640.77
2018-08-22T10:38:53.363Z,100640.53
2018-08-22T10:40:02.643Z,100636.84
2018-08-22T10:41:08.584Z,100637.80
2018-08-22T10:42:14.589Z,100635.09
2018-08-22T10:43:20.619Z,100636.91
2018-08-22T10:44:27.027Z,100632.30
2018-08-22T10:45:33.142Z,100638.75
2018-08-22T10:46:39.400Z,100638.14
2018-08-22T10:47:45.419Z,100637.27
2018-08-22T10:48:51.333Z,100638.11
2018-08-22T10:49:57.336Z,100635.35
2018-08-22T10:51:03.385Z,100635.05
2018-08-22T10:52:09.360Z,100633.72
2018-08-22T10:53:16.081Z,100629.95
2018-08-22T10:54:22.181Z,100633.25
2018-08-22T10:55:28.217Z,100636.18
2018-08-22T10:56:34.292Z,100629.38
2018-08-22T10:57:40.330Z,100634.00
2018-08-22T10:58:46.301Z,100628.44
2018-08-22T10:59:52.319Z,100627.86
2018-08-22T11:00:58.457Z,100627.10
2018-08-22T11:02:04.459Z,100623.63
2018-08-22T11:03:10.776Z,100620.62
2018-08-22T11:04:16.772Z,100617.27
2018-08-22T11:05:23.320Z,100621.94
2018-08-22T11:06:28.913Z,100613.73
2018-08-22T11:07:35.148Z,100617.00
2018-08-22T11:08:41.152Z,100615.81
2018-08-22T11:09:47.669Z,100617.16
2018-08-22T11:10:53.720Z,100610.03
2018-08-22T11:11:59.729Z,100616.17
2018-08-22T11:13:05.341Z,100610.30
2018-08-22T11:14:11.428Z,100602.78
2018-08-22T11:15:17.226Z,100607.89
2018-08-22T11:16:22.908Z,100610.78
2018-08-22T11:17:28.915Z,100612.05
2018-08-22T11:18:34.910Z,100605.47
2018-08-22T11:19:40.895Z,100606.73
2018-08-22T11:20:45.483Z,100609.42
2018-08-22T11:22:03.808Z,100603.95
2018-08-22T11:23:26.692Z,100605.31
2018-08-22T11:24:49.725Z,100608.51
2018-08-22T11:26:12.572Z,100603.96
2018-08-22T11:27:35.499Z,100600.41
2018-08-22T11:28:58.198Z,100600.91
2018-08-22T11:30:20.867Z,100605.47
2018-08-22T11:31:44.051Z,100597.81
2018-08-22T11:33:07.407Z,100598.66
2018-08-22T11:34:30.422Z,100603.61
2018-08-22T11:35:41.138Z,100601.87
2018-08-22T11:36:46.008Z,100604.62
2018-08-22T11:37:51.584Z,100608.55
2018-08-22T11:38:57.591Z,100600.92
2018-08-22T11:40:03.730Z,100600.73
2018-08-22T11:41:09.719Z,100601.64
2018-08-22T11:42:15.914Z,100601.30
2018-08-22T11:43:22.013Z,100602.48
2018-08-22T11:44:28.028Z,100600.08
2018-08-22T11:45:34.055Z,100594.41
2018-08-22T11:46:40.060Z,100592.55
2018-08-22T11:47:46.264Z,100595.95
2018-08-22T11:48:52.832Z,100590.87
2018-08-22T11:49:58.866Z,100592.52
2018-08-22T11:51:04.905Z,100594.62
2018-08-22T11:52:10.881Z,100595.06
2018-08-22T11:53:17.567Z,100592.31
2018-08-22T11:54:23.335Z,100592.58
2018-08-22T11:55:29.318Z,100592.41
2018-08-22T11:56:35.320Z,100591.48
2018-08-22T11:57:41.301Z,100583.47
2018-08-22T11:58:47.327Z,100587.70
2018-08-22T11:59:53.313Z,100590.40
2018-08-22T12:00:59.382Z,100586.28
2018-08-22T12:02:05.020Z,100583.72
2018-08-22T12:03:10.831Z,100588.14
2018-08-22T12:04:16.760Z,100577.81
2018-08-22T12:05:23.388Z,100579.97
2018-08-22T12:06:29.377Z,100569.98
2018-08-22T12:07:35.357Z,100569.16
2018-08-22T12:08:41.372Z,100574.42
2018-08-22T12:09:47.366Z,100574.16
2018-08-22T12:10:53.359Z,100575.80
2018-08-22T12:11:59.398Z,100571.94
2018-08-22T12:13:11.628Z,100569.84
2018-08-22T12:14:22.580Z,100577.23
2018-08-22T12:15:28.687Z,100570.03
2018-08-22T12:16:35.815Z,100568.87
2018-08-22T12:17:41.779Z,100567.18
2018-08-22T12:18:53.005Z,100570.41
2018-08-22T12:20:00.788Z,100569.38
2018-08-22T12:21:06.777Z,100572.77
2018-08-22T12:22:12.770Z,100563.63
2018-08-22T12:23:18.857Z,100561.56
2018-08-22T12:24:25.185Z,100566.37
2018-08-22T12:25:31.005Z,100568.41
2018-08-22T12:26:37.067Z,100565.50
2018-08-22T12:27:43.287Z,100562.17
2018-08-22T12:28:49.303Z,100555.98
2018-08-22T12:29:55.198Z,100560.90
2018-08-22T12:31:01.186Z,100556.63
2018-08-22T12:32:07.428Z,100551.34
2018-08-22T12:33:13.667Z,100554.98
2018-08-22T12:34:20.060Z,100549.95
2018-08-22T12:35:26.176Z,100551.63
2018-08-22T12:36:32.180Z,100553.62
2018-08-22T12:37:38.227Z,100547.77
2018-08-22T12:38:44.064Z,100547.57
2018-08-22T12:39:50.781Z,100543.60
2018-08-22T12:40:56.780Z,100540.97
2018-08-22T12:42:02.828Z,100542.02
2018-08-22T12:43:08.833Z,100542.37
2018-08-22T12:44:14.880Z,100537.97
2018-08-22T12:45:20.822Z,100537.92
2018-08-22T12:46:26.881Z,100533.80
2018-08-22T12:47:32.847Z,100530.67
2018-08-22T12:48:38.825Z,100527.02
2018-08-22T12:49:44.828Z,100523.45